Time;durP1;ratioP1;P1;durP2;ratioP2;P2;SDS_P1;SDS_P2;PMS_P1;PMS_P2;Temp;Humidity;BMP_temperature;BMP_pressure;BME280_temperature;BME280_humidity;BME280_pressure;Samples;Min_cycle;Max_cycle;Signal;HPM_P1;HPM_P2
2023/11/04 00:00:53;;;;;;;3.50;2.10;;;9.00;99.90;;;;;;5041024;28;20497;-72
2023/11/04 00:03:19;;;;;;;2.33;1.67;;;9.00;99.90;;;;;;5031814;28;20246;-72
2023/11/04 00:05:46;;;;;;;3.00;2.10;;;9.00;99.90;;;;;;5038519;28;20414;-72
2023/11/04 00:08:12;;;;;;;3.53;2.30;;;9.10;99.90;;;;;;5035324;28;20187;-72
2023/11/04 00:10:38;;;;;;;4.03;2.23;;;9.10;99.90;;;;;;5044243;28;20784;-72
2023/11/04 00:13:04;;;;;;;3.23;1.87;;;9.20;99.90;;;;;;5043967;28;20457;-72
2023/11/04 00:15:29;;;;;;;3.77;2.30;;;9.20;99.90;;;;;;5041861;28;20183;-72
2023/11/04 00:17:55;;;;;;;3.00;1.80;;;9.20;99.90;;;;;;5043542;28;20192;-72
2023/11/04 00:20:21;;;;;;;3.70;1.87;;;9.20;99.90;;;;;;5041787;28;20638;-72
2023/11/04 00:22:46;;;;;;;3.40;2.03;;;9.20;99.90;;;;;;5043175;28;20208;-72
2023/11/04 00:25:12;;;;;;;4.27;1.80;;;9.20;99.90;;;;;;5040720;28;20938;-72
2023/11/04 00:27:37;;;;;;;3.80;2.10;;;9.30;99.90;;;;;;5040981;28;20267;-73
2023/11/04 00:30:03;;;;;;;2.43;1.80;;;9.40;99.90;;;;;;5039270;28;20204;-72
2023/11/04 00:32:29;;;;;;;2.57;1.87;;;9.50;99.90;;;;;;5040500;28;20207;-72
2023/11/04 00:34:55;;;;;;;3.37;2.20;;;9.50;99.90;;;;;;5046098;28;20421;-72
2023/11/04 00:37:21;;;;;;;3.37;1.90;;;9.60;99.90;;;;;;5045532;28;20415;-72
2023/11/04 00:39:47;;;;;;;3.60;2.10;;;9.60;99.90;;;;;;5044579;28;20240;-72
2023/11/04 00:42:13;;;;;;;2.90;2.10;;;9.60;99.90;;;;;;5041976;28;20184;-72
2023/11/04 00:44:38;;;;;;;2.40;1.60;;;9.60;99.90;;;;;;5048055;28;20937;-72
2023/11/04 00:47:04;;;;;;;2.70;1.80;;;9.60;99.90;;;;;;5045911;28;20646;-72
2023/11/04 00:49:30;;;;;;;2.73;1.90;;;9.60;99.90;;;;;;5043435;28;20566;-72
2023/11/04 00:51:55;;;;;;;3.30;1.73;;;9.50;99.90;;;;;;5042164;28;20199;-72
2023/11/04 00:54:21;;;;;;;2.90;2.23;;;9.60;99.90;;;;;;5043435;28;20253;-72
2023/11/04 00:56:47;;;;;;;2.70;2.00;;;9.60;99.90;;;;;;5050344;28;20180;-72
2023/11/04 00:59:12;;;;;;;2.37;1.80;;;9.60;99.90;;;;;;5041381;28;20687;-73
2023/11/04 01:01:38;;;;;;;2.73;1.70;;;9.70;99.90;;;;;;5040677;28;20192;-71
2023/11/04 01:04:04;;;;;;;3.07;1.90;;;9.60;99.90;;;;;;5043661;28;20238;-71
2023/11/04 01:06:29;;;;;;;2.17;1.47;;;9.70;99.90;;;;;;5038731;28;20184;-71
2023/11/04 01:08:55;;;;;;;6.70;1.87;;;9.70;99.90;;;;;;5046275;28;20200;-72
2023/11/04 01:11:20;;;;;;;2.40;1.50;;;9.70;99.90;;;;;;5043609;28;20195;-72
2023/11/04 01:13:46;;;;;;;2.93;1.90;;;9.60;99.90;;;;;;5045737;28;20622;-71
2023/11/04 01:16:12;;;;;;;4.27;1.83;;;9.70;99.90;;;;;;5044911;28;20184;-72
2023/11/04 01:18:38;;;;;;;3.13;1.70;;;9.80;99.90;;;;;;5043492;28;20434;-71
2023/11/04 01:21:04;;;;;;;3.80;1.80;;;9.70;99.90;;;;;;5042638;28;20251;-73
2023/11/04 01:23:30;;;;;;;2.67;1.60;;;9.70;99.90;;;;;;5044452;28;20537;-72
2023/11/04 01:25:55;;;;;;;2.67;1.47;;;9.80;99.90;;;;;;5043581;28;20529;-72
2023/11/04 01:28:21;;;;;;;2.10;1.50;;;9.80;99.90;;;;;;5045944;28;20179;-71
2023/11/04 01:30:47;;;;;;;2.00;1.50;;;9.90;99.90;;;;;;5041108;28;20302;-71
2023/11/04 01:33:12;;;;;;;2.03;1.60;;;9.80;99.90;;;;;;5046926;28;20257;-71
2023/11/04 01:35:38;;;;;;;2.17;1.47;;;9.80;99.90;;;;;;5042647;28;20674;-71
2023/11/04 01:38:03;;;;;;;2.43;1.60;;;9.80;99.90;;;;;;5046513;28;20180;-72
2023/11/04 01:40:29;;;;;;;4.63;1.80;;;9.90;99.90;;;;;;5044798;28;20214;-72
2023/11/04 01:42:54;;;;;;;2.63;1.60;;;9.80;99.90;;;;;;5043820;28;20205;-72
2023/11/04 01:45:20;;;;;;;2.40;1.70;;;9.90;99.90;;;;;;5046472;28;20223;-72
2023/11/04 01:47:46;;;;;;;2.30;1.33;;;9.80;99.90;;;;;;5048525;28;20182;-72
2023/11/04 01:50:11;;;;;;;3.70;1.50;;;9.80;99.90;;;;;;5047820;28;20298;-72
2023/11/04 01:52:40;;;;;;;2.20;1.50;;;9.80;99.90;;;;;;5045196;28;20283;-72
2023/11/04 01:55:08;;;;;;;2.20;1.40;;;9.90;99.90;;;;;;5040278;28;20176;-72
2023/11/04 01:57:34;;;;;;;2.40;1.60;;;9.90;99.90;;;;;;5045340;28;20418;-72
2023/11/04 02:00:01;;;;;;;3.90;1.50;;;9.90;99.90;;;;;;5047262;28;20524;-72
2023/11/04 02:02:28;;;;;;;3.03;1.60;;;9.80;99.90;;;;;;5044109;28;20472;-72
2023/11/04 02:04:55;;;;;;;2.20;1.47;;;9.60;99.90;;;;;;5042210;28;20518;-72
2023/11/04 02:07:25;;;;;;;3.03;1.67;;;9.60;99.90;;;;;;5047196;28;20429;-72
2023/11/04 02:09:51;;;;;;;2.03;1.43;;;9.60;99.90;;;;;;5046994;28;20465;-72
2023/11/04 02:12:16;;;;;;;1.83;1.27;;;9.60;99.90;;;;;;5040594;28;20869;-71
2023/11/04 02:14:52;;;;;;;3.07;1.50;;;9.50;99.90;;;;;;5040903;28;20428;-72
2023/11/04 02:17:18;;;;;;;2.30;1.43;;;9.60;99.90;;;;;;5044458;28;20209;-72
2023/11/04 02:19:45;;;;;;;2.47;1.30;;;9.60;99.90;;;;;;5037344;28;20809;-71
2023/11/04 02:22:11;;;;;;;2.20;1.50;;;9.70;99.90;;;;;;5040498;28;20438;-71
2023/11/04 02:24:37;;;;;;;2.30;1.50;;;9.60;99.90;;;;;;5038962;28;20482;-71
2023/11/04 02:27:02;;;;;;;2.33;1.50;;;9.70;99.90;;;;;;5044830;28;21024;-72
2023/11/04 02:29:28;;;;;;;3.07;1.70;;;9.60;99.90;;;;;;5041295;28;20757;-71
2023/11/04 02:31:54;;;;;;;3.10;1.60;;;9.70;99.90;;;;;;5041809;28;20186;-72
2023/11/04 02:34:19;;;;;;;2.30;1.30;;;9.70;99.90;;;;;;5042023;28;20238;-71
2023/11/04 02:36:45;;;;;;;2.73;1.30;;;9.60;99.90;;;;;;5046392;28;20188;-72
2023/11/04 02:39:10;;;;;;;5.97;1.60;;;9.70;99.90;;;;;;5046557;28;20210;-72
2023/11/04 02:41:36;;;;;;;2.53;1.43;;;9.60;99.90;;;;;;5048169;28;20187;-71
2023/11/04 02:44:01;;;;;;;3.87;1.80;;;9.70;99.90;;;;;;5040700;28;20276;-71
2023/11/04 02:46:27;;;;;;;3.30;1.73;;;9.60;99.90;;;;;;5046154;28;20293;-72
2023/11/04 02:48:53;;;;;;;2.93;1.77;;;9.60;99.90;;;;;;5046457;28;20184;-71
2023/11/04 02:51:18;;;;;;;1.80;1.30;;;9.60;99.90;;;;;;5043116;28;20192;-71
2023/11/04 02:53:44;;;;;;;2.40;1.60;;;9.70;99.90;;;;;;5042684;28;20744;-71
2023/11/04 02:56:09;;;;;;;2.17;1.40;;;9.70;99.90;;;;;;5043976;28;20245;-71
2023/11/04 02:58:35;;;;;;;2.37;1.60;;;9.80;99.90;;;;;;5044007;28;20184;-71
2023/11/04 03:01:01;;;;;;;2.87;1.40;;;9.80;99.90;;;;;;5040994;28;20206;-71
2023/11/04 03:03:26;;;;;;;2.57;1.50;;;9.80;99.90;;;;;;5040147;28;20234;-71
2023/11/04 03:05:54;;;;;;;3.20;1.57;;;9.80;99.90;;;;;;5047653;28;20188;-71
2023/11/04 03:08:20;;;;;;;3.50;1.73;;;9.90;99.90;;;;;;5044992;28;20205;-72
2023/11/04 03:10:46;;;;;;;5.17;1.60;;;9.90;99.90;;;;;;5035467;28;20977;-72
2023/11/04 03:13:12;;;;;;;2.20;1.37;;;10.00;99.90;;;;;;5045777;28;20202;-72
2023/11/04 03:15:38;;;;;;;2.77;1.90;;;10.00;99.90;;;;;;5040458;28;20427;-72
2023/11/04 03:18:03;;;;;;;2.10;1.33;;;10.10;99.90;;;;;;5043018;28;20205;-72
2023/11/04 03:20:29;;;;;;;4.37;1.60;;;10.10;99.90;;;;;;5040757;28;20241;-72
2023/11/04 03:22:54;;;;;;;1.73;1.27;;;10.10;99.90;;;;;;5044659;28;20226;-72
2023/11/04 03:25:21;;;;;;;1.80;1.20;;;10.20;99.90;;;;;;5043261;28;20191;-72
2023/11/04 03:27:46;;;;;;;1.90;1.20;;;10.20;99.90;;;;;;5035728;28;20192;-71
2023/11/04 03:30:12;;;;;;;2.00;1.30;;;10.20;99.90;;;;;;5042716;28;20560;-72
2023/11/04 03:32:38;;;;;;;1.90;1.30;;;10.20;99.90;;;;;;5050394;28;20298;-72
2023/11/04 03:35:04;;;;;;;3.77;1.30;;;10.20;99.90;;;;;;5047983;28;20184;-72
2023/11/04 03:37:29;;;;;;;2.93;1.30;;;10.20;99.90;;;;;;5052224;28;20175;-72
2023/11/04 03:39:56;;;;;;;3.50;1.77;;;10.10;99.90;;;;;;5041341;28;20456;-72
2023/11/04 03:42:23;;;;;;;2.47;1.57;;;10.10;99.90;;;;;;5046130;28;20610;-72
2023/11/04 03:44:48;;;;;;;2.93;1.27;;;10.10;99.90;;;;;;5044240;28;20479;-72
2023/11/04 03:47:14;;;;;;;2.30;1.50;;;10.10;99.90;;;;;;5046755;28;20502;-73
2023/11/04 03:49:39;;;;;;;2.00;1.23;;;10.10;99.90;;;;;;5048324;28;20219;-72
2023/11/04 03:52:06;;;;;;;2.47;1.30;;;10.10;99.90;;;;;;5046232;28;20201;-72
2023/11/04 03:54:33;;;;;;;2.97;1.33;;;10.00;99.90;;;;;;5050215;28;20654;-72
2023/11/04 03:56:59;;;;;;;3.10;1.20;;;10.00;99.90;;;;;;5043935;28;20424;-72
2023/11/04 03:59:25;;;;;;;4.50;1.70;;;10.00;99.90;;;;;;5052044;28;20418;-72
2023/11/04 04:01:50;;;;;;;3.40;1.30;;;10.00;99.90;;;;;;5045496;28;20188;-72
2023/11/04 04:04:16;;;;;;;2.40;1.13;;;9.90;99.90;;;;;;5038420;28;20200;-72
2023/11/04 04:06:41;;;;;;;1.90;1.27;;;9.90;99.90;;;;;;5040947;28;20825;-72
2023/11/04 04:09:07;;;;;;;2.87;1.43;;;9.80;99.90;;;;;;5045535;28;20735;-72
2023/11/04 04:11:32;;;;;;;2.93;1.60;;;9.80;99.90;;;;;;5039613;28;20597;-72
2023/11/04 04:13:58;;;;;;;1.90;1.20;;;9.70;99.90;;;;;;5044001;28;20716;-72
2023/11/04 04:16:24;;;;;;;2.70;1.40;;;9.60;99.90;;;;;;5037045;28;20187;-72
2023/11/04 04:18:50;;;;;;;2.97;1.40;;;9.70;99.90;;;;;;5035631;28;20261;-72
2023/11/04 04:21:16;;;;;;;2.10;1.23;;;9.70;99.90;;;;;;5040913;28;20175;-72
2023/11/04 04:23:43;;;;;;;3.67;1.60;;;9.80;99.90;;;;;;5041831;28;20778;-72
2023/11/04 04:26:08;;;;;;;4.07;1.73;;;9.80;99.90;;;;;;5038108;28;20437;-72
2023/11/04 04:28:35;;;;;;;2.00;1.30;;;9.70;99.90;;;;;;5036559;28;20441;-72
2023/11/04 04:31:01;;;;;;;2.03;1.20;;;9.70;99.90;;;;;;5034374;28;20223;-72
2023/11/04 04:33:27;;;;;;;2.20;1.40;;;9.60;99.90;;;;;;5040748;28;20513;-73
2023/11/04 04:35:52;;;;;;;2.47;1.77;;;9.60;99.90;;;;;;5037593;28;20179;-72
2023/11/04 04:38:18;;;;;;;2.00;1.30;;;9.60;99.90;;;;;;5047397;28;20183;-73
2023/11/04 04:40:43;;;;;;;2.07;1.17;;;9.50;99.90;;;;;;5042532;28;20189;-73
2023/11/04 04:43:09;;;;;;;3.60;1.60;;;9.60;99.90;;;;;;5040505;28;20212;-72
2023/11/04 04:45:34;;;;;;;1.90;1.30;;;9.60;99.90;;;;;;5040697;28;20272;-72
2023/11/04 04:48:00;;;;;;;3.30;1.30;;;9.60;99.90;;;;;;5041971;28;20175;-72
2023/11/04 04:50:25;;;;;;;2.10;1.30;;;9.50;99.90;;;;;;5044667;28;20215;-72
2023/11/04 04:52:51;;;;;;;2.00;1.30;;;9.50;99.90;;;;;;5037368;28;20192;-73
2023/11/04 04:55:17;;;;;;;3.97;1.37;;;9.60;99.90;;;;;;5037792;28;20410;-72
2023/11/04 04:57:42;;;;;;;2.90;1.50;;;9.60;99.90;;;;;;5038969;28;20181;-72
2023/11/04 05:00:09;;;;;;;2.00;1.30;;;9.60;99.90;;;;;;5038989;28;20263;-73
2023/11/04 05:02:34;;;;;;;2.03;1.30;;;9.60;99.90;;;;;;5046736;28;20204;-72
2023/11/04 05:05:00;;;;;;;2.70;1.50;;;9.60;99.90;;;;;;5038019;28;20429;-73
2023/11/04 05:07:26;;;;;;;5.67;1.40;;;9.60;99.90;;;;;;5044337;28;20192;-72
2023/11/04 05:09:51;;;;;;;2.60;1.43;;;9.70;99.90;;;;;;5044471;28;20216;-72
2023/11/04 05:12:17;;;;;;;2.00;1.30;;;9.80;99.90;;;;;;5041273;28;20721;-73
2023/11/04 05:14:42;;;;;;;1.80;1.33;;;9.80;99.90;;;;;;5040800;28;20632;-73
2023/11/04 05:17:08;;;;;;;2.10;1.30;;;9.90;99.90;;;;;;5035696;28;20239;-73
2023/11/04 05:19:33;;;;;;;2.13;1.53;;;9.90;99.90;;;;;;5042561;28;20615;-73
2023/11/04 05:21:59;;;;;;;2.40;1.50;;;9.90;99.90;;;;;;5043984;28;20187;-73
2023/11/04 05:24:26;;;;;;;2.37;1.43;;;10.00;99.90;;;;;;5044131;28;20591;-73
2023/11/04 05:26:51;;;;;;;2.73;1.83;;;10.00;99.90;;;;;;5039991;28;20222;-73
2023/11/04 05:29:17;;;;;;;2.20;1.50;;;10.00;99.90;;;;;;5038074;28;20875;-73
2023/11/04 05:31:42;;;;;;;3.27;1.50;;;10.10;99.90;;;;;;5038459;28;20202;-73
2023/11/04 05:34:11;;;;;;;4.80;1.73;;;10.10;99.90;;;;;;5041381;28;20542;-74
2023/11/04 05:36:37;;;;;;;2.10;1.57;;;10.10;99.90;;;;;;5056403;28;20407;-73
2023/11/04 05:39:02;;;;;;;3.07;1.67;;;10.10;99.90;;;;;;5040571;28;20445;-72
2023/11/04 05:41:28;;;;;;;4.23;1.53;;;10.10;99.90;;;;;;5036944;28;20180;-72
2023/11/04 05:43:54;;;;;;;3.33;1.60;;;10.10;99.90;;;;;;5039190;28;20201;-72
2023/11/04 05:46:19;;;;;;;2.20;1.40;;;10.10;99.90;;;;;;5036287;28;20264;-72
2023/11/04 05:48:45;;;;;;;4.60;1.57;;;10.10;99.90;;;;;;5041644;28;20177;-72
2023/11/04 05:51:11;;;;;;;2.00;1.50;;;10.10;99.90;;;;;;5039172;28;20203;-73
2023/11/04 05:53:36;;;;;;;2.30;1.60;;;10.10;99.90;;;;;;5043223;28;20212;-73
2023/11/04 05:56:03;;;;;;;2.20;1.50;;;10.10;99.90;;;;;;5044760;28;21018;-70
2023/11/04 05:58:29;;;;;;;2.30;1.30;;;10.10;99.90;;;;;;5041081;28;20550;-72
2023/11/04 06:00:54;;;;;;;3.80;1.80;;;10.10;99.90;;;;;;5041479;28;20434;-71
2023/11/04 06:03:20;;;;;;;3.70;1.50;;;10.10;99.90;;;;;;5042327;28;20465;-72
2023/11/04 06:05:47;;;;;;;2.43;1.43;;;10.20;99.90;;;;;;5043302;28;20192;-72
2023/11/04 06:08:12;;;;;;;2.77;2.27;;;10.20;99.90;;;;;;5042913;28;20200;-71
2023/11/04 06:10:38;;;;;;;2.73;1.53;;;10.10;99.90;;;;;;5046529;28;20462;-71
2023/11/04 06:13:03;;;;;;;2.30;1.70;;;10.10;99.90;;;;;;5041947;28;20204;-71
2023/11/04 06:15:30;;;;;;;2.20;1.50;;;10.10;99.90;;;;;;5048644;28;20616;-73
2023/11/04 06:17:55;;;;;;;2.37;1.63;;;10.00;99.90;;;;;;5042031;28;20172;-70
2023/11/04 06:20:21;;;;;;;2.50;1.60;;;10.00;99.90;;;;;;5044227;28;20418;-71
2023/11/04 06:22:47;;;;;;;2.80;1.90;;;10.00;99.90;;;;;;5042594;28;20401;-71
2023/11/04 06:25:13;;;;;;;4.80;1.80;;;10.00;99.90;;;;;;5040696;28;20658;-70
2023/11/04 06:27:39;;;;;;;2.07;1.40;;;10.00;99.90;;;;;;5043400;28;20461;-70
2023/11/04 06:30:06;;;;;;;3.53;1.60;;;9.90;99.90;;;;;;5042515;28;20227;-70
2023/11/04 06:32:33;;;;;;;2.60;1.43;;;9.90;99.90;;;;;;5042555;28;20685;-71
2023/11/04 06:34:59;;;;;;;3.50;1.60;;;9.80;99.90;;;;;;5039297;28;20461;-72
2023/11/04 06:37:24;;;;;;;3.90;1.83;;;9.80;99.90;;;;;;5040215;28;20453;-72
2023/11/04 06:39:50;;;;;;;2.83;1.63;;;9.80;99.90;;;;;;5041270;28;20617;-71
2023/11/04 06:42:18;;;;;;;3.37;1.93;;;9.70;99.90;;;;;;5043221;28;20184;-71
2023/11/04 06:44:45;;;;;;;4.30;2.60;;;9.70;99.90;;;;;;5035668;28;20184;-71
2023/11/04 06:47:11;;;;;;;4.63;1.90;;;9.70;99.90;;;;;;5035347;28;20427;-71
2023/11/04 06:49:36;;;;;;;4.50;2.70;;;9.60;99.90;;;;;;5043111;28;20545;-72
2023/11/04 06:52:02;;;;;;;3.63;1.80;;;9.60;99.90;;;;;;5038962;28;20185;-71
2023/11/04 06:54:27;;;;;;;3.30;2.00;;;9.60;99.90;;;;;;5041068;28;20180;-71
2023/11/04 06:56:54;;;;;;;17.00;2.60;;;9.60;99.90;;;;;;5039430;28;20181;-71
2023/11/04 06:59:20;;;;;;;17.93;2.23;;;9.60;99.90;;;;;;5039826;28;21248;-72
2023/11/04 07:01:50;;;;;;;6.33;2.20;;;9.50;99.90;;;;;;5039977;28;20847;-71
2023/11/04 07:04:16;;;;;;;2.90;1.90;;;9.50;99.90;;;;;;5040825;28;20445;-71
2023/11/04 07:06:44;;;;;;;3.83;1.97;;;9.50;99.90;;;;;;5037245;28;20925;-71
2023/11/04 07:09:10;;;;;;;2.17;1.60;;;9.50;99.90;;;;;;5036111;28;20570;-72
2023/11/04 07:11:36;;;;;;;4.07;1.80;;;9.50;99.90;;;;;;5039351;28;20873;-72
2023/11/04 07:14:02;;;;;;;2.53;2.00;;;9.50;99.90;;;;;;5040258;28;20615;-71
2023/11/04 07:16:28;;;;;;;4.10;2.00;;;9.40;99.90;;;;;;5036379;28;20172;-71
2023/11/04 07:18:54;;;;;;;3.60;2.50;;;9.40;99.90;;;;;;5040444;28;20437;-71
2023/11/04 07:21:19;;;;;;;3.70;2.07;;;9.50;99.90;;;;;;5040813;28;20931;-71
2023/11/04 07:23:45;;;;;;;3.30;2.10;;;9.50;99.90;;;;;;5042571;28;20203;-72
2023/11/04 07:26:10;;;;;;;2.67;1.70;;;9.50;99.90;;;;;;5040888;28;20184;-71
2023/11/04 07:28:37;;;;;;;3.50;1.97;;;9.50;99.90;;;;;;5042280;28;20183;-71
2023/11/04 07:31:04;;;;;;;3.47;1.93;;;9.50;99.90;;;;;;5037577;28;20295;-71
2023/11/04 07:33:29;;;;;;;2.40;1.80;;;9.60;99.90;;;;;;5040111;28;20466;-73
2023/11/04 07:35:55;;;;;;;4.40;2.30;;;9.60;99.90;;;;;;5035938;28;20426;-72
2023/11/04 07:38:21;;;;;;;3.07;1.80;;;9.60;99.90;;;;;;5033046;28;20255;-71
2023/11/04 07:40:46;;;;;;;3.13;2.10;;;9.70;99.90;;;;;;5041922;28;20234;-71
2023/11/04 07:43:12;;;;;;;2.80;1.90;;;9.70;99.90;;;;;;5041962;28;20269;-71
2023/11/04 07:45:38;;;;;;;3.10;1.97;;;9.80;99.90;;;;;;5037736;28;20802;-72
2023/11/04 07:48:06;;;;;;;3.40;2.20;;;9.80;99.90;;;;;;5043933;28;20179;-71
2023/11/04 07:50:32;;;;;;;3.00;2.40;;;9.90;99.90;;;;;;5036852;28;20619;-71
2023/11/04 07:52:57;;;;;;;4.87;2.83;;;9.90;99.90;;;;;;5043167;28;20442;-72
2023/11/04 07:55:23;;;;;;;7.60;2.90;;;9.90;99.90;;;;;;5034290;28;20259;-71
2023/11/04 07:57:49;;;;;;;8.10;2.97;;;9.90;99.90;;;;;;5037682;28;20184;-71
2023/11/04 08:00:15;;;;;;;3.43;2.63;;;9.90;99.90;;;;;;5036444;28;20194;-71
2023/11/04 08:02:40;;;;;;;6.10;2.83;;;9.90;99.90;;;;;;5039217;28;20470;-71
2023/11/04 08:05:14;;;;;;;5.47;2.77;;;9.90;99.90;;;;;;5036766;28;20514;-71
2023/11/04 08:07:40;;;;;;;4.07;2.20;;;10.00;99.90;;;;;;5034393;28;20204;-71
2023/11/04 08:10:07;;;;;;;2.80;1.90;;;10.00;99.90;;;;;;5039001;28;21322;-71
2023/11/04 08:12:33;;;;;;;4.10;2.57;;;10.10;99.90;;;;;;5040384;28;20572;-71
2023/11/04 08:14:59;;;;;;;6.43;2.70;;;10.20;99.90;;;;;;5037999;28;20422;-71
2023/11/04 08:17:24;;;;;;;2.37;1.53;;;10.30;99.90;;;;;;5037418;28;20499;-71
2023/11/04 08:19:50;;;;;;;2.13;1.60;;;10.40;99.90;;;;;;5037131;28;20272;-71
2023/11/04 08:22:16;;;;;;;3.60;2.10;;;10.50;99.90;;;;;;5041525;28;20207;-71
2023/11/04 08:24:42;;;;;;;5.43;2.20;;;10.70;99.90;;;;;;5040760;28;20202;-71
2023/11/04 08:27:08;;;;;;;2.70;1.70;;;10.80;99.90;;;;;;5036602;28;20649;-71
2023/11/04 08:29:34;;;;;;;3.50;1.90;;;10.90;99.90;;;;;;5039561;28;20474;-72
2023/11/04 08:32:00;;;;;;;3.30;2.10;;;11.10;99.90;;;;;;5043941;28;20410;-71
2023/11/04 08:34:26;;;;;;;2.97;2.10;;;11.20;99.90;;;;;;5042816;28;20235;-71
2023/11/04 08:36:51;;;;;;;2.70;2.10;;;11.30;99.90;;;;;;5041775;28;20172;-72
2023/11/04 08:39:17;;;;;;;2.83;2.33;;;11.40;99.90;;;;;;5040237;28;20481;-72
2023/11/04 08:41:44;;;;;;;6.33;2.30;;;11.50;99.90;;;;;;5043087;28;20187;-72
2023/11/04 08:44:11;;;;;;;6.27;3.60;;;11.60;99.90;;;;;;5037853;28;20192;-72
2023/11/04 08:46:37;;;;;;;4.23;2.83;;;11.70;99.90;;;;;;5041809;28;20870;-72
2023/11/04 08:49:03;;;;;;;2.97;1.70;;;11.70;99.90;;;;;;5036645;28;20509;-72
2023/11/04 08:51:28;;;;;;;3.30;2.30;;;11.80;99.90;;;;;;5040968;28;20930;-72
2023/11/04 08:53:54;;;;;;;3.70;3.20;;;11.90;99.90;;;;;;5041600;28;20549;-72
2023/11/04 08:56:20;;;;;;;3.30;2.20;;;11.90;99.90;;;;;;5040654;28;20177;-72
2023/11/04 08:58:46;;;;;;;2.60;2.10;;;12.10;99.90;;;;;;5044229;28;20245;-72
2023/11/04 09:01:14;;;;;;;3.50;2.07;;;12.10;99.90;;;;;;5030407;28;20220;-72
2023/11/04 09:03:40;;;;;;;4.00;1.93;;;12.20;99.90;;;;;;5052629;28;20445;-72
2023/11/04 09:06:07;;;;;;;2.93;2.03;;;12.20;99.90;;;;;;5049950;28;20429;-72
2023/11/04 09:08:32;;;;;;;2.20;1.70;;;12.40;99.90;;;;;;5047021;28;20188;-72
2023/11/04 09:10:58;;;;;;;4.00;2.70;;;12.40;99.90;;;;;;5049178;28;20457;-73
2023/11/04 09:13:24;;;;;;;3.40;1.90;;;12.50;99.90;;;;;;5047948;28;20294;-73
2023/11/04 09:15:50;;;;;;;3.10;2.03;;;12.60;99.90;;;;;;5052399;28;20186;-73
2023/11/04 09:18:15;;;;;;;3.43;1.90;;;12.70;99.90;;;;;;5049681;28;20411;-73
2023/11/04 09:20:42;;;;;;;4.60;2.10;;;12.80;99.90;;;;;;5054950;28;20263;-73
2023/11/04 09:23:08;;;;;;;3.77;2.20;;;12.90;99.90;;;;;;5053239;28;20200;-72
2023/11/04 09:25:35;;;;;;;2.37;1.70;;;13.00;99.90;;;;;;5049778;28;20977;-72
2023/11/04 09:28:00;;;;;;;2.47;1.67;;;13.10;99.90;;;;;;5049811;28;20282;-71
2023/11/04 09:30:26;;;;;;;3.37;2.00;;;13.20;99.90;;;;;;5042564;28;20454;-72
2023/11/04 09:32:52;;;;;;;2.80;1.53;;;13.30;99.90;;;;;;5055947;28;20206;-72
2023/11/04 09:35:18;;;;;;;2.20;1.50;;;13.30;99.90;;;;;;5056101;28;20506;-72
2023/11/04 09:37:44;;;;;;;2.47;1.80;;;13.40;99.90;;;;;;5066677;28;20225;-72
2023/11/04 09:40:11;;;;;;;2.90;1.73;;;13.30;99.90;;;;;;5066993;28;20194;-72
2023/11/04 09:42:37;;;;;;;2.47;2.00;;;13.40;99.90;;;;;;5055586;28;20450;-72
2023/11/04 09:45:04;;;;;;;3.37;1.70;;;13.40;99.90;;;;;;5063042;28;20556;-72
2023/11/04 09:47:32;;;;;;;2.17;1.60;;;13.50;99.90;;;;;;5061881;28;20438;-72
2023/11/04 09:49:59;;;;;;;4.60;1.63;;;13.50;99.90;;;;;;5056406;28;20447;-72
2023/11/04 09:52:26;;;;;;;2.40;1.40;;;13.40;99.90;;;;;;5054606;28;20842;-72
2023/11/04 09:54:52;;;;;;;2.30;1.70;;;13.40;99.90;;;;;;5043892;28;20422;-72
2023/11/04 09:57:19;;;;;;;2.00;1.50;;;13.60;99.90;;;;;;5047310;28;20447;-72
2023/11/04 09:59:45;;;;;;;3.40;1.93;;;13.40;99.90;;;;;;5046150;28;20457;-71
2023/11/04 10:02:11;;;;;;;3.90;1.70;;;13.50;99.90;;;;;;5039415;28;20466;-71
2023/11/04 10:04:40;;;;;;;2.53;1.40;;;13.40;99.90;;;;;;5045025;28;20423;-71
2023/11/04 10:07:06;;;;;;;2.30;1.60;;;13.30;99.90;;;;;;5047310;28;20434;-71
2023/11/04 10:09:32;;;;;;;3.60;2.00;;;13.30;99.90;;;;;;5043661;28;20470;-71
2023/11/04 10:11:58;;;;;;;2.73;1.77;;;13.30;99.90;;;;;;5044882;28;20195;-71
2023/11/04 10:14:24;;;;;;;1.93;1.40;;;13.20;99.90;;;;;;5040441;28;20505;-72
2023/11/04 10:16:50;;;;;;;2.60;1.80;;;13.30;99.90;;;;;;5045941;28;20176;-71
2023/11/04 10:19:17;;;;;;;2.60;2.00;;;13.40;99.90;;;;;;5041887;28;20451;-71
2023/11/04 10:21:44;;;;;;;4.20;2.50;;;13.50;99.90;;;;;;5042004;28;21087;-71
2023/11/04 10:24:10;;;;;;;3.53;1.87;;;13.60;99.90;;;;;;5042035;28;20427;-71
2023/11/04 10:26:36;;;;;;;3.07;1.70;;;13.80;99.90;;;;;;5040025;28;20948;-71
2023/11/04 10:29:02;;;;;;;1.93;1.47;;;13.80;99.90;;;;;;5040116;28;20435;-71
2023/11/04 10:31:30;;;;;;;2.83;1.60;;;13.90;99.90;;;;;;5034180;28;20463;-71
2023/11/04 10:34:00;;;;;;;3.03;1.70;;;13.90;99.90;;;;;;5044335;28;20499;-71
2023/11/04 10:36:26;;;;;;;3.23;2.33;;;14.10;99.90;;;;;;5040797;28;21015;-71
2023/11/04 10:39:02;;;;;;;2.97;1.90;;;14.20;99.90;;;;;;5036428;28;20441;-72
2023/11/04 10:41:44;;;;;;;2.67;2.23;;;14.30;99.90;;;;;;5037247;28;20200;-72
2023/11/04 10:44:21;;;;;;;2.67;1.83;;;14.40;99.90;;;;;;5038718;28;20462;-72
2023/11/04 10:46:58;;;;;;;3.17;1.80;;;14.50;99.90;;;;;;5038350;28;20432;-72
2023/11/04 10:49:33;;;;;;;3.00;1.90;;;14.60;99.90;;;;;;5034725;28;20499;-72
2023/11/04 10:52:03;;;;;;;2.17;1.70;;;14.60;99.90;;;;;;5038485;28;20403;-72
2023/11/04 10:54:35;;;;;;;2.80;2.10;;;14.60;99.90;;;;;;5036675;28;20411;-72
2023/11/04 10:57:15;;;;;;;2.87;2.03;;;14.60;99.90;;;;;;5034773;28;20933;-73
2023/11/04 11:02:39;;;;;;;4.43;2.53;;;14.60;99.90;;;;;;5037273;28;20450;-73
2023/11/04 11:05:08;;;;;;;3.67;1.93;;;14.60;99.90;;;;;;5042085;28;20444;-73
2023/11/04 11:07:35;;;;;;;2.90;2.00;;;14.60;99.90;;;;;;5038817;28;20422;-73
2023/11/04 11:10:05;;;;;;;5.20;2.00;;;14.70;99.90;;;;;;5038324;28;20469;-73
2023/11/04 11:12:33;;;;;;;3.27;1.90;;;14.80;99.90;;;;;;5036241;28;20462;-73
2023/11/04 11:14:59;;;;;;;3.40;1.60;;;14.90;99.90;;;;;;5037689;28;20442;-73
2023/11/04 11:17:32;;;;;;;2.40;1.60;;;15.10;99.90;;;;;;5037214;28;20921;-73
2023/11/04 11:19:58;;;;;;;2.40;1.50;;;15.20;99.90;;;;;;5037487;28;20453;-73
2023/11/04 11:22:27;;;;;;;2.77;1.40;;;15.20;99.90;;;;;;5036107;28;20449;-73
2023/11/04 11:24:57;;;;;;;1.80;1.27;;;15.10;99.90;;;;;;5035112;28;20196;-74
2023/11/04 11:27:24;;;;;;;2.33;1.40;;;15.00;99.90;;;;;;5032655;28;20567;-73
2023/11/04 11:29:52;;;;;;;2.63;1.60;;;14.80;99.90;;;;;;5035402;28;20535;-73
2023/11/04 11:32:18;;;;;;;1.83;1.23;;;14.70;99.90;;;;;;5039216;28;20457;-73
2023/11/04 11:34:51;;;;;;;2.40;1.50;;;14.70;99.90;;;;;;5038928;28;21178;-73
2023/11/04 11:37:25;;;;;;;1.90;1.30;;;14.70;99.90;;;;;;5036711;28;20188;-73
2023/11/04 11:39:51;;;;;;;2.00;1.57;;;14.50;99.90;;;;;;5038359;28;20885;-72
2023/11/04 11:42:24;;;;;;;1.80;1.30;;;14.30;99.90;;;;;;5037403;28;20450;-72
2023/11/04 11:44:50;;;;;;;1.90;1.40;;;14.40;99.90;;;;;;5031906;28;20434;-72
2023/11/04 11:47:15;;;;;;;2.77;1.50;;;14.30;99.90;;;;;;5040981;28;20429;-72
2023/11/04 11:49:41;;;;;;;5.70;1.60;;;14.20;99.90;;;;;;5037474;28;20208;-72
2023/11/04 11:52:07;;;;;;;3.97;1.90;;;14.20;99.90;;;;;;5037903;28;20697;-72
2023/11/04 11:54:32;;;;;;;2.30;1.67;;;14.00;99.90;;;;;;5037474;28;20222;-73
2023/11/04 11:56:59;;;;;;;2.07;1.43;;;13.90;99.90;;;;;;5037988;28;20642;-72
2023/11/04 11:59:24;;;;;;;2.10;1.50;;;13.70;99.90;;;;;;5033338;28;20230;-71
2023/11/04 12:01:53;;;;;;;3.27;1.93;;;13.50;99.90;;;;;;5034364;28;20541;-72
2023/11/04 12:04:18;;;;;;;1.90;1.40;;;13.50;99.90;;;;;;5040915;28;20201;-70
2023/11/04 12:06:48;;;;;;;2.10;1.50;;;13.50;99.90;;;;;;5047188;28;20437;-71
2023/11/04 12:09:14;;;;;;;2.60;1.40;;;13.50;99.90;;;;;;5047274;28;20206;-73
2023/11/04 12:11:39;;;;;;;2.37;1.80;;;13.30;99.90;;;;;;5042038;28;21035;-70
2023/11/04 12:14:05;;;;;;;3.50;1.90;;;13.40;99.90;;;;;;5046482;28;20203;-70
2023/11/04 12:16:30;;;;;;;8.50;4.03;;;13.30;99.90;;;;;;5045689;28;20194;-71
2023/11/04 12:18:56;;;;;;;9.40;4.03;;;13.40;99.90;;;;;;5044827;28;20198;-71
2023/11/04 12:21:22;;;;;;;8.67;4.10;;;13.30;99.90;;;;;;5045990;28;20191;-70
2023/11/04 12:23:49;;;;;;;4.70;2.70;;;13.30;99.90;;;;;;5043949;28;20690;-71
2023/11/04 12:26:15;;;;;;;3.97;2.07;;;13.20;99.90;;;;;;5041444;28;20230;-71
2023/11/04 12:28:43;;;;;;;3.50;2.50;;;13.10;99.90;;;;;;5042338;28;20460;-70
2023/11/04 12:31:10;;;;;;;5.83;1.90;;;13.10;99.90;;;;;;5039809;28;20988;-71
2023/11/04 12:33:36;;;;;;;2.57;1.40;;;13.00;99.90;;;;;;5040076;28;20477;-71
2023/11/04 12:36:02;;;;;;;3.70;1.73;;;13.00;99.90;;;;;;5039879;28;20459;-71
2023/11/04 12:38:28;;;;;;;2.50;1.60;;;13.00;99.90;;;;;;5046411;28;20426;-71
2023/11/04 12:40:55;;;;;;;3.03;1.90;;;13.00;99.90;;;;;;5041371;28;20263;-72
2023/11/04 12:43:23;;;;;;;2.97;2.40;;;13.00;99.90;;;;;;5048253;28;20208;-72
2023/11/04 12:45:52;;;;;;;2.57;1.70;;;12.90;99.90;;;;;;5045305;28;20475;-72
2023/11/04 12:48:18;;;;;;;2.57;1.77;;;12.80;99.90;;;;;;5041744;28;20581;-71
2023/11/04 12:50:44;;;;;;;3.90;2.43;;;12.80;99.90;;;;;;5044019;28;20467;-71